sensor_id;sensor_type;location;lat;lon;timestamp;pressure;altitude;pressure_sealevel;temperature;humidity
19845;BME280;10083;51.038;7.012;2023-05-19T00:01:53;103484.53;;;11.09;100.00
19845;BME280;10083;51.038;7.012;2023-05-19T00:04:33;103447.63;;;10.97;100.00
19845;BME280;10083;51.038;7.012;2023-05-19T00:07:09;103401.81;;;10.82;100.00
19845;BME280;10083;51.038;7.012;2023-05-19T00:09:37;103357.06;;;10.78;100.00
19845;BME280;10083;51.038;7.012;2023-05-19T00:12:05;103311.34;;;10.69;100.00
19845;BME280;10083;51.038;7.012;2023-05-19T00:14:32;103268.47;;;10.69;100.00
19845;BME280;10083;51.038;7.012;2023-05-19T00:17:07;103197.94;;;10.73;100.00
19845;BME280;10083;51.038;7.012;2023-05-19T00:19:37;103183.72;;;10.77;100.00
19845;BME280;10083;51.038;7.012;2023-05-19T00:22:06;103169.41;;;10.76;100.00
19845;BME280;10083;51.038;7.012;2023-05-19T00:24:33;103152.50;;;10.80;100.00
19845;BME280;10083;51.038;7.012;2023-05-19T00:27:00;103134.53;;;10.75;100.00
19845;BME280;10083;51.038;7.012;2023-05-19T00:29:29;103124.66;;;10.69;100.00
19845;BME280;10083;51.038;7.012;2023-05-19T00:32:02;103128.31;;;10.74;100.00
19845;BME280;10083;51.038;7.012;2023-05-19T00:34:29;103082.69;;;10.70;100.00
19845;BME280;10083;51.038;7.012;2023-05-19T00:37:01;103038.78;;;10.60;100.00
19845;BME280;10083;51.038;7.012;2023-05-19T00:39:30;102995.97;;;10.66;100.00
19845;BME280;10083;51.038;7.012;2023-05-19T00:41:58;102957.34;;;10.49;100.00
19845;BME280;10083;51.038;7.012;2023-05-19T00:44:25;102892.22;;;10.53;100.00
19845;BME280;10083;51.038;7.012;2023-05-19T00:46:52;102844.75;;;10.38;100.00
19845;BME280;10083;51.038;7.012;2023-05-19T00:49:20;102800.06;;;10.34;100.00
19845;BME280;10083;51.038;7.012;2023-05-19T00:51:48;102771.50;;;10.36;100.00
19845;BME280;10083;51.038;7.012;2023-05-19T00:54:15;102776.06;;;10.45;100.00
19845;BME280;10083;51.038;7.012;2023-05-19T00:57:03;102759.88;;;10.36;100.00
19845;BME280;10083;51.038;7.012;2023-05-19T00:59:30;102725.94;;;10.30;100.00
19845;BME280;10083;51.038;7.012;2023-05-19T01:01:57;102683.94;;;10.26;100.00
19845;BME280;10083;51.038;7.012;2023-05-19T01:04:24;102651.78;;;10.23;100.00
19845;BME280;10083;51.038;7.012;2023-05-19T01:06:56;102628.47;;;10.13;100.00
19845;BME280;10083;51.038;7.012;2023-05-19T01:09:24;102591.06;;;10.19;100.00
19845;BME280;10083;51.038;7.012;2023-05-19T01:11:51;102590.94;;;10.07;100.00
19845;BME280;10083;51.038;7.012;2023-05-19T01:14:20;102567.66;;;9.98;100.00
19845;BME280;10083;51.038;7.012;2023-05-19T01:16:53;102537.25;;;9.87;100.00
19845;BME280;10083;51.038;7.012;2023-05-19T01:19:35;102508.59;;;9.76;100.00
19845;BME280;10083;51.038;7.012;2023-05-19T01:22:19;102510.44;;;9.81;100.00
19845;BME280;10083;51.038;7.012;2023-05-19T01:25:29;102511.31;;;9.80;100.00
19845;BME280;10083;51.038;7.012;2023-05-19T01:28:37;102515.69;;;9.68;100.00
19845;BME280;10083;51.038;7.012;2023-05-19T01:31:11;102517.44;;;9.64;100.00
19845;BME280;10083;51.038;7.012;2023-05-19T01:33:42;102510.25;;;9.59;100.00
19845;BME280;10083;51.038;7.012;2023-05-19T01:36:10;102500.31;;;9.44;100.00
19845;BME280;10083;51.038;7.012;2023-05-19T01:38:39;102487.00;;;9.50;100.00
19845;BME280;10083;51.038;7.012;2023-05-19T01:41:07;102486.13;;;9.51;100.00
19845;BME280;10083;51.038;7.012;2023-05-19T01:43:37;102485.13;;;9.41;100.00
19845;BME280;10083;51.038;7.012;2023-05-19T01:46:04;102470.91;;;9.48;100.00
19845;BME280;10083;51.038;7.012;2023-05-19T01:48:36;102455.78;;;9.50;100.00
19845;BME280;10083;51.038;7.012;2023-05-19T01:51:03;102467.34;;;9.46;100.00
19845;BME280;10083;51.038;7.012;2023-05-19T01:53:44;102450.31;;;9.37;100.00
19845;BME280;10083;51.038;7.012;2023-05-19T01:56:15;102436.09;;;9.38;100.00
19845;BME280;10083;51.038;7.012;2023-05-19T01:58:52;102426.16;;;9.25;100.00
19845;BME280;10083;51.038;7.012;2023-05-19T02:01:33;102419.78;;;9.07;100.00
19845;BME280;10083;51.038;7.012;2023-05-19T02:04:18;102401.06;;;9.04;100.00
19845;BME280;10083;51.038;7.012;2023-05-19T02:06:51;102392.16;;;9.07;100.00
19845;BME280;10083;51.038;7.012;2023-05-19T02:09:36;102397.38;;;8.93;100.00
19845;BME280;10083;51.038;7.012;2023-05-19T02:12:10;102403.63;;;8.95;100.00
19845;BME280;10083;51.038;7.012;2023-05-19T02:14:44;102406.31;;;8.95;100.00
19845;BME280;10083;51.038;7.012;2023-05-19T02:17:14;102392.06;;;8.98;100.00
19845;BME280;10083;51.038;7.012;2023-05-19T02:19:44;102403.59;;;8.91;100.00
19845;BME280;10083;51.038;7.012;2023-05-19T02:22:13;102410.69;;;8.90;100.00
19845;BME280;10083;51.038;7.012;2023-05-19T02:24:41;102420.53;;;8.94;100.00
19845;BME280;10083;51.038;7.012;2023-05-19T02:27:10;102416.97;;;8.94;100.00
19845;BME280;10083;51.038;7.012;2023-05-19T02:29:38;102428.59;;;8.99;100.00
19845;BME280;10083;51.038;7.012;2023-05-19T02:32:06;102439.31;;;9.00;100.00
19845;BME280;10083;51.038;7.012;2023-05-19T02:34:43;102460.53;;;8.87;100.00
19845;BME280;10083;51.038;7.012;2023-05-19T02:37:11;102460.50;;;8.85;100.00
19845;BME280;10083;51.038;7.012;2023-05-19T02:40:02;102477.41;;;8.83;100.00
19845;BME280;10083;51.038;7.012;2023-05-19T02:42:30;102475.50;;;8.73;100.00
19845;BME280;10083;51.038;7.012;2023-05-19T02:44:59;102476.44;;;8.79;100.00
19845;BME280;10083;51.038;7.012;2023-05-19T02:47:26;102488.97;;;8.83;100.00
19845;BME280;10083;51.038;7.012;2023-05-19T02:50:04;102509.53;;;8.89;100.00
19845;BME280;10083;51.038;7.012;2023-05-19T02:52:31;102524.53;;;8.79;100.00
19845;BME280;10083;51.038;7.012;2023-05-19T02:54:58;102531.53;;;8.68;100.00
19845;BME280;10083;51.038;7.012;2023-05-19T02:57:25;102536.03;;;8.72;100.00
19845;BME280;10083;51.038;7.012;2023-05-19T02:59:58;102546.69;;;8.71;100.00
19845;BME280;10083;51.038;7.012;2023-05-19T03:02:26;102547.41;;;8.57;100.00
19845;BME280;10083;51.038;7.012;2023-05-19T03:04:53;102552.69;;;8.54;100.00
19845;BME280;10083;51.038;7.012;2023-05-19T03:07:27;102550.22;;;8.68;100.00
19845;BME280;10083;51.038;7.012;2023-05-19T03:09:54;102564.78;;;8.91;100.00
19845;BME280;10083;51.038;7.012;2023-05-19T03:12:25;102578.59;;;8.60;100.00
19845;BME280;10083;51.038;7.012;2023-05-19T03:14:52;102586.34;;;8.42;100.00
19845;BME280;10083;51.038;7.012;2023-05-19T03:17:20;102558.91;;;8.52;100.00
19845;BME280;10083;51.038;7.012;2023-05-19T03:19:47;102587.63;;;8.71;100.00
19845;BME280;10083;51.038;7.012;2023-05-19T03:22:24;102596.81;;;8.90;100.00
19845;BME280;10083;51.038;7.012;2023-05-19T03:24:52;102615.34;;;8.78;100.00
19845;BME280;10083;51.038;7.012;2023-05-19T03:27:24;102634.94;;;8.78;100.00
19845;BME280;10083;51.038;7.012;2023-05-19T03:29:51;102638.38;;;8.70;100.00
19845;BME280;10083;51.038;7.012;2023-05-19T03:32:19;102660.63;;;8.69;100.00
19845;BME280;10083;51.038;7.012;2023-05-19T03:34:47;102665.84;;;8.62;100.00
19845;BME280;10083;51.038;7.012;2023-05-19T03:37:14;102674.53;;;8.49;100.00
19845;BME280;10083;51.038;7.012;2023-05-19T03:39:41;102676.38;;;8.53;100.00
19845;BME280;10083;51.038;7.012;2023-05-19T03:42:15;102680.81;;;8.53;100.00
19845;BME280;10083;51.038;7.012;2023-05-19T03:44:42;102686.91;;;8.44;100.00
19845;BME280;10083;51.038;7.012;2023-05-19T03:47:11;102693.88;;;8.33;100.00
19845;BME280;10083;51.038;7.012;2023-05-19T03:50:15;102699.19;;;8.33;100.00
19845;BME280;10083;51.038;7.012;2023-05-19T03:52:55;102701.91;;;8.36;100.00
19845;BME280;10083;51.038;7.012;2023-05-19T03:55:29;102700.09;;;8.34;100.00
19845;BME280;10083;51.038;7.012;2023-05-19T03:57:57;102707.25;;;8.35;100.00
19845;BME280;10083;51.038;7.012;2023-05-19T04:00:31;102715.22;;;8.33;100.00
19845;BME280;10083;51.038;7.012;2023-05-19T04:02:58;102728.56;;;8.33;100.00
19845;BME280;10083;51.038;7.012;2023-05-19T04:05:32;102732.19;;;8.35;100.00
19845;BME280;10083;51.038;7.012;2023-05-19T04:08:06;102751.91;;;8.45;100.00
19845;BME280;10083;51.038;7.012;2023-05-19T04:10:33;102764.38;;;8.46;100.00
19845;BME280;10083;51.038;7.012;2023-05-19T04:13:02;102774.19;;;8.47;100.00
19845;BME280;10083;51.038;7.012;2023-05-19T04:15:29;102784.00;;;8.48;100.00
19845;BME280;10083;51.038;7.012;2023-05-19T04:18:16;102800.97;;;8.51;100.00
19845;BME280;10083;51.038;7.012;2023-05-19T04:20:43;102823.31;;;8.56;100.00
19845;BME280;10083;51.038;7.012;2023-05-19T04:23:10;102821.56;;;8.58;100.00
19845;BME280;10083;51.038;7.012;2023-05-19T04:25:37;102818.88;;;8.57;100.00
19845;BME280;10083;51.038;7.012;2023-05-19T04:28:08;102831.38;;;8.59;100.00
19845;BME280;10083;51.038;7.012;2023-05-19T04:30:35;102845.00;;;8.73;100.00
19845;BME280;10083;51.038;7.012;2023-05-19T04:33:10;102862.94;;;8.83;100.00
19845;BME280;10083;51.038;7.012;2023-05-19T04:35:37;102854.19;;;8.90;100.00
19845;BME280;10083;51.038;7.012;2023-05-19T04:38:07;102871.28;;;9.01;100.00
19845;BME280;10083;51.038;7.012;2023-05-19T04:40:34;102877.66;;;9.08;100.00
19845;BME280;10083;51.038;7.012;2023-05-19T04:43:02;102885.72;;;9.11;100.00
19845;BME280;10083;51.038;7.012;2023-05-19T04:45:30;102910.06;;;9.26;100.00
19845;BME280;10083;51.038;7.012;2023-05-19T04:48:00;102917.31;;;9.35;100.00
19845;BME280;10083;51.038;7.012;2023-05-19T04:50:27;102925.53;;;9.48;100.00
19845;BME280;10083;51.038;7.012;2023-05-19T04:52:57;102945.38;;;9.63;100.00
19845;BME280;10083;51.038;7.012;2023-05-19T04:55:24;102956.34;;;9.78;100.00
19845;BME280;10083;51.038;7.012;2023-05-19T04:57:52;102979.63;;;9.85;100.00
19845;BME280;10083;51.038;7.012;2023-05-19T05:00:20;102987.75;;;9.92;100.00
19845;BME280;10083;51.038;7.012;2023-05-19T05:03:02;102987.88;;;9.98;100.00
19845;BME280;10083;51.038;7.012;2023-05-19T05:05:33;103003.34;;;10.16;100.00
19845;BME280;10083;51.038;7.012;2023-05-19T05:08:08;103027.66;;;10.30;100.00
19845;BME280;10083;51.038;7.012;2023-05-19T05:10:39;103046.66;;;10.50;100.00
19845;BME280;10083;51.038;7.012;2023-05-19T05:13:17;103059.31;;;10.60;100.00
19845;BME280;10083;51.038;7.012;2023-05-19T05:15:45;103098.03;;;10.84;100.00
19845;BME280;10083;51.038;7.012;2023-05-19T05:18:15;103134.06;;;11.05;100.00
19845;BME280;10083;51.038;7.012;2023-05-19T05:20:44;103167.38;;;11.23;100.00
19845;BME280;10083;51.038;7.012;2023-05-19T05:23:21;103202.34;;;11.32;100.00
19845;BME280;10083;51.038;7.012;2023-05-19T05:25:48;103257.84;;;11.35;100.00
19845;BME280;10083;51.038;7.012;2023-05-19T05:28:16;103281.25;;;11.47;100.00
19845;BME280;10083;51.038;7.012;2023-05-19T05:30:47;103321.59;;;11.53;100.00
19845;BME280;10083;51.038;7.012;2023-05-19T05:33:16;103350.34;;;11.63;100.00
19845;BME280;10083;51.038;7.012;2023-05-19T05:35:44;103381.84;;;11.73;100.00
19845;BME280;10083;51.038;7.012;2023-05-19T05:38:20;103411.56;;;11.85;100.00
19845;BME280;10083;51.038;7.012;2023-05-19T05:40:47;103442.06;;;11.90;100.00
19845;BME280;10083;51.038;7.012;2023-05-19T05:43:20;103474.59;;;12.11;100.00
19845;BME280;10083;51.038;7.012;2023-05-19T05:45:52;103509.69;;;12.22;100.00
19845;BME280;10083;51.038;7.012;2023-05-19T05:48:22;103534.88;;;12.30;100.00
19845;BME280;10083;51.038;7.012;2023-05-19T05:50:49;103570.84;;;12.41;100.00
19845;BME280;10083;51.038;7.012;2023-05-19T05:53:24;103605.97;;;12.52;100.00
19845;BME280;10083;51.038;7.012;2023-05-19T05:55:58;103608.56;;;12.49;100.00
19845;BME280;10083;51.038;7.012;2023-05-19T05:58:32;103636.47;;;12.55;100.00
19845;BME280;10083;51.038;7.012;2023-05-19T06:01:00;103652.81;;;12.69;100.00
19845;BME280;10083;51.038;7.012;2023-05-19T06:03:28;103703.19;;;12.82;100.00
19845;BME280;10083;51.038;7.012;2023-05-19T06:06:01;103723.97;;;12.94;100.00
19845;BME280;10083;51.038;7.012;2023-05-19T06:08:28;103734.78;;;12.97;100.00
19845;BME280;10083;51.038;7.012;2023-05-19T06:10:57;103739.47;;;13.10;100.00
19845;BME280;10083;51.038;7.012;2023-05-19T06:13:25;103737.16;;;13.34;100.00
19845;BME280;10083;51.038;7.012;2023-05-19T06:15:52;103744.44;;;13.43;100.00
19845;BME280;10083;51.038;7.012;2023-05-19T06:18:26;103734.63;;;13.49;100.00
19845;BME280;10083;51.038;7.012;2023-05-19T06:20:57;103730.19;;;13.51;100.00
19845;BME280;10083;51.038;7.012;2023-05-19T06:23:42;103711.69;;;13.82;100.00
19845;BME280;10083;51.038;7.012;2023-05-19T06:26:10;103717.16;;;13.89;100.00
19845;BME280;10083;51.038;7.012;2023-05-19T06:28:52;103710.13;;;14.07;100.00
19845;BME280;10083;51.038;7.012;2023-05-19T06:31:19;103698.53;;;14.15;100.00
19845;BME280;10083;51.038;7.012;2023-05-19T06:34:08;103718.53;;;14.35;100.00
19845;BME280;10083;51.038;7.012;2023-05-19T06:36:51;103695.34;;;14.59;100.00
19845;BME280;10083;51.038;7.012;2023-05-19T06:39:18;103645.94;;;14.67;100.00
19845;BME280;10083;51.038;7.012;2023-05-19T06:41:52;103610.03;;;14.77;100.00
19845;BME280;10083;51.038;7.012;2023-05-19T06:44:41;103543.56;;;14.91;100.00
19845;BME280;10083;51.038;7.012;2023-05-19T06:47:10;103521.09;;;15.11;100.00
19845;BME280;10083;51.038;7.012;2023-05-19T06:49:40;103526.50;;;15.06;100.00
19845;BME280;10083;51.038;7.012;2023-05-19T06:52:08;103520.25;;;15.36;100.00
19845;BME280;10083;51.038;7.012;2023-05-19T06:54:49;103476.19;;;15.57;100.00
19845;BME280;10083;51.038;7.012;2023-05-19T06:57:16;103414.06;;;15.61;100.00
19845;BME280;10083;51.038;7.012;2023-05-19T06:59:46;103379.81;;;15.69;100.00
19845;BME280;10083;51.038;7.012;2023-05-19T07:02:13;103376.25;;;15.61;100.00
19845;BME280;10083;51.038;7.012;2023-05-19T07:04:43;103377.06;;;15.84;100.00
19845;BME280;10083;51.038;7.012;2023-05-19T07:07:16;103371.59;;;16.04;100.00
19845;BME280;10083;51.038;7.012;2023-05-19T07:09:44;103355.38;;;16.04;100.00
19845;BME280;10083;51.038;7.012;2023-05-19T07:12:15;103303.09;;;16.07;100.00
19845;BME280;10083;51.038;7.012;2023-05-19T07:14:42;103274.28;;;16.04;100.00
19845;BME280;10083;51.038;7.012;2023-05-19T07:17:18;103322.81;;;16.24;100.00
19845;BME280;10083;51.038;7.012;2023-05-19T07:19:46;103348.94;;;16.31;100.00
19845;BME280;10083;51.038;7.012;2023-05-19T07:22:21;103279.47;;;16.39;100.00
19845;BME280;10083;51.038;7.012;2023-05-19T07:24:49;103265.91;;;16.42;100.00
19845;BME280;10083;51.038;7.012;2023-05-19T07:27:39;103222.53;;;16.54;100.00
19845;BME280;10083;51.038;7.012;2023-05-19T07:30:07;103224.25;;;16.70;100.00
19845;BME280;10083;51.038;7.012;2023-05-19T07:32:54;103267.25;;;16.98;100.00
19845;BME280;10083;51.038;7.012;2023-05-19T07:35:21;103215.97;;;16.86;100.00
19845;BME280;10083;51.038;7.012;2023-05-19T07:38:02;103259.88;;;17.15;100.00
19845;BME280;10083;51.038;7.012;2023-05-19T07:40:29;103240.91;;;17.15;100.00
19845;BME280;10083;51.038;7.012;2023-05-19T07:43:10;103165.25;;;17.01;100.00
19845;BME280;10083;51.038;7.012;2023-05-19T07:45:37;103155.09;;;17.22;100.00
19845;BME280;10083;51.038;7.012;2023-05-19T07:50:54;103066.56;;;17.27;100.00
19845;BME280;10083;51.038;7.012;2023-05-19T07:53:30;103027.25;;;17.59;100.00
19845;BME280;10083;51.038;7.012;2023-05-19T07:55:57;103029.97;;;17.58;100.00
19845;BME280;10083;51.038;7.012;2023-05-19T07:58:25;103029.88;;;17.66;100.00
19845;BME280;10083;51.038;7.012;2023-05-19T08:00:52;103080.88;;;17.96;100.00
19845;BME280;10083;51.038;7.012;2023-05-19T08:03:30;103047.66;;;17.82;100.00
19845;BME280;10083;51.038;7.012;2023-05-19T08:05:58;102986.16;;;17.85;100.00
19845;BME280;10083;51.038;7.012;2023-05-19T08:08:25;102990.44;;;17.97;100.00
19845;BME280;10083;51.038;7.012;2023-05-19T08:10:56;102922.94;;;18.28;100.00
19845;BME280;10083;51.038;7.012;2023-05-19T08:13:31;102908.34;;;18.33;100.00
19845;BME280;10083;51.038;7.012;2023-05-19T08:15:59;102943.81;;;18.24;100.00
19845;BME280;10083;51.038;7.012;2023-05-19T08:18:26;102891.44;;;18.22;100.00
19845;BME280;10083;51.038;7.012;2023-05-19T08:20:53;102977.56;;;18.56;100.00
19845;BME280;10083;51.038;7.012;2023-05-19T08:23:24;102948.63;;;18.55;100.00
19845;BME280;10083;51.038;7.012;2023-05-19T08:25:53;102899.28;;;18.77;100.00
19845;BME280;10083;51.038;7.012;2023-05-19T08:28:24;102918.41;;;18.71;100.00
19845;BME280;10083;51.038;7.012;2023-05-19T08:30:52;102916.16;;;18.91;100.00
19845;BME280;10083;51.038;7.012;2023-05-19T08:33:33;102893.81;;;19.16;100.00
19845;BME280;10083;51.038;7.012;2023-05-19T08:36:01;102868.78;;;19.38;100.00
19845;BME280;10083;51.038;7.012;2023-05-19T08:38:35;102857.81;;;19.75;100.00
19845;BME280;10083;51.038;7.012;2023-05-19T08:41:03;102833.34;;;19.75;100.00
19845;BME280;10083;51.038;7.012;2023-05-19T08:43:34;102788.47;;;19.92;100.00
19845;BME280;10083;51.038;7.012;2023-05-19T08:46:02;102755.75;;;19.64;100.00
19845;BME280;10083;51.038;7.012;2023-05-19T10:32:37;102146.22;;;22.59;100.00
19845;BME280;10083;51.038;7.012;2023-05-19T10:38:45;102225.25;;;22.07;100.00
19845;BME280;10083;51.038;7.012;2023-05-19T10:41:30;102066.09;;;24.37;100.00
19845;BME280;10083;51.038;7.012;2023-05-19T10:44:29;101839.75;;;25.19;100.00
19845;BME280;10083;51.038;7.012;2023-05-19T10:47:07;101775.44;;;27.13;100.00
19845;BME280;10083;51.038;7.012;2023-05-19T10:49:53;101708.59;;;27.70;100.00
19845;BME280;10083;51.038;7.012;2023-05-19T10:52:26;101640.13;;;27.54;100.00
19845;BME280;10083;51.038;7.012;2023-05-19T10:55:02;101421.44;;;27.25;100.00
19845;BME280;10083;51.038;7.012;2023-05-19T10:57:53;101736.09;;;28.71;100.00
19845;BME280;10083;51.038;7.012;2023-05-19T11:00:28;101541.84;;;29.15;100.00
19845;BME280;10083;51.038;7.012;2023-05-19T11:06:55;101740.75;;;27.34;100.00
19845;BME280;10083;51.038;7.012;2023-05-19T11:09:23;101647.41;;;26.85;100.00
19845;BME280;10083;51.038;7.012;2023-05-19T11:12:01;101698.84;;;26.60;100.00
19845;BME280;10083;51.038;7.012;2023-05-19T11:14:29;101684.28;;;28.75;100.00
19845;BME280;10083;51.038;7.012;2023-05-19T11:16:59;101586.13;;;28.29;100.00
19845;BME280;10083;51.038;7.012;2023-05-19T11:19:26;101619.09;;;28.74;100.00
19845;BME280;10083;51.038;7.012;2023-05-19T11:22:07;101705.53;;;28.95;100.00
19845;BME280;10083;51.038;7.012;2023-05-19T11:24:35;101863.31;;;26.78;100.00
19845;BME280;10083;51.038;7.012;2023-05-19T11:27:20;101976.94;;;24.61;100.00
19845;BME280;10083;51.038;7.012;2023-05-19T11:29:48;102018.91;;;24.18;100.00
19845;BME280;10083;51.038;7.012;2023-05-19T11:32:16;102106.47;;;23.55;100.00
19845;BME280;10083;51.038;7.012;2023-05-19T11:34:47;101848.38;;;27.19;100.00
19845;BME280;10083;51.038;7.012;2023-05-19T11:37:16;101810.22;;;29.08;100.00
19845;BME280;10083;51.038;7.012;2023-05-19T11:39:44;101601.78;;;28.40;100.00
19845;BME280;10083;51.038;7.012;2023-05-19T11:42:12;101550.09;;;28.53;100.00
19845;BME280;10083;51.038;7.012;2023-05-19T11:44:53;101734.53;;;29.53;100.00
19845;BME280;10083;51.038;7.012;2023-05-19T11:47:23;101577.34;;;28.99;100.00
19845;BME280;10083;51.038;7.012;2023-05-19T11:49:51;101537.44;;;29.54;100.00
19845;BME280;10083;51.038;7.012;2023-05-19T11:52:22;101672.91;;;29.00;100.00
19845;BME280;10083;51.038;7.012;2023-05-19T11:55:04;101669.06;;;27.82;100.00
19845;BME280;10083;51.038;7.012;2023-05-19T11:57:31;101664.63;;;28.57;100.00
19845;BME280;10083;51.038;7.012;2023-05-19T12:00:01;101634.38;;;29.51;100.00
19845;BME280;10083;51.038;7.012;2023-05-19T12:02:34;101420.81;;;30.20;100.00
19845;BME280;10083;51.038;7.012;2023-05-19T12:05:03;101535.78;;;27.62;100.00
19845;BME280;10083;51.038;7.012;2023-05-19T12:07:31;101576.97;;;28.72;100.00
19845;BME280;10083;51.038;7.012;2023-05-19T12:10:05;101800.59;;;26.83;100.00
19845;BME280;10083;51.038;7.012;2023-05-19T12:12:33;101838.47;;;25.91;100.00
19845;BME280;10083;51.038;7.012;2023-05-19T12:15:11;101897.34;;;25.46;100.00
19845;BME280;10083;51.038;7.012;2023-05-19T12:17:38;101953.03;;;26.41;100.00
19845;BME280;10083;51.038;7.012;2023-05-19T12:20:12;101802.41;;;27.91;100.00
19845;BME280;10083;51.038;7.012;2023-05-19T12:22:42;101731.47;;;28.27;100.00
19845;BME280;10083;51.038;7.012;2023-05-19T12:28:00;101742.16;;;28.97;100.00
19845;BME280;10083;51.038;7.012;2023-05-19T12:30:29;101478.28;;;29.97;100.00
19845;BME280;10083;51.038;7.012;2023-05-19T12:32:58;101643.63;;;30.32;100.00
19845;BME280;10083;51.038;7.012;2023-05-19T12:35:26;101519.22;;;28.39;100.00
19845;BME280;10083;51.038;7.012;2023-05-19T12:37:55;101324.25;;;30.18;100.00
19845;BME280;10083;51.038;7.012;2023-05-19T12:40:28;101441.72;;;29.74;100.00
19845;BME280;10083;51.038;7.012;2023-05-19T12:42:56;101498.97;;;30.70;100.00
19845;BME280;10083;51.038;7.012;2023-05-19T12:45:23;101299.06;;;31.50;100.00
19845;BME280;10083;51.038;7.012;2023-05-19T12:47:56;101305.50;;;31.23;100.00
19845;BME280;10083;51.038;7.012;2023-05-19T12:50:28;101401.88;;;30.44;100.00
19845;BME280;10083;51.038;7.012;2023-05-19T12:52:57;101399.59;;;31.05;100.00
19845;BME280;10083;51.038;7.012;2023-05-19T12:55:24;101320.03;;;29.66;100.00
19845;BME280;10083;51.038;7.012;2023-05-19T12:57:51;101343.66;;;31.47;100.00
19845;BME280;10083;51.038;7.012;2023-05-19T13:00:21;101489.91;;;30.96;100.00
19845;BME280;10083;51.038;7.012;2023-05-19T13:03:00;101349.25;;;30.82;100.00
19845;BME280;10083;51.038;7.012;2023-05-19T13:05:30;101514.31;;;29.25;100.00
19845;BME280;10083;51.038;7.012;2023-05-19T13:08:00;101438.09;;;31.26;100.00
19845;BME280;10083;51.038;7.012;2023-05-19T13:10:29;101431.78;;;30.96;100.00
19845;BME280;10083;51.038;7.012;2023-05-19T13:12:57;101336.22;;;32.36;100.00
19845;BME280;10083;51.038;7.012;2023-05-19T13:15:28;101334.00;;;30.13;100.00
19845;BME280;10083;51.038;7.012;2023-05-19T13:17:59;101428.25;;;30.29;100.00
19845;BME280;10083;51.038;7.012;2023-05-19T13:20:28;101332.06;;;30.32;100.00
19845;BME280;10083;51.038;7.012;2023-05-19T13:22:57;101290.13;;;30.83;100.00
19845;BME280;10083;51.038;7.012;2023-05-19T13:25:27;101253.03;;;32.10;100.00
19845;BME280;10083;51.038;7.012;2023-05-19T13:27:55;101480.19;;;31.66;100.00
19845;BME280;10083;51.038;7.012;2023-05-19T13:30:53;101374.97;;;31.57;100.00
19845;BME280;10083;51.038;7.012;2023-05-19T13:33:21;101431.56;;;32.35;100.00
19845;BME280;10083;51.038;7.012;2023-05-19T13:35:48;101309.69;;;28.29;100.00
19845;BME280;10083;51.038;7.012;2023-05-19T13:38:15;101522.88;;;30.71;100.00
19845;BME280;10083;51.038;7.012;2023-05-19T13:40:44;101401.06;;;30.15;100.00
19845;BME280;10083;51.038;7.012;2023-05-19T13:43:11;101406.16;;;31.76;100.00
19845;BME280;10083;51.038;7.012;2023-05-19T13:45:40;101329.66;;;31.30;100.00
19845;BME280;10083;51.038;7.012;2023-05-19T13:48:08;101347.00;;;31.32;100.00
19845;BME280;10083;51.038;7.012;2023-05-19T13:50:36;101567.44;;;29.99;100.00
19845;BME280;10083;51.038;7.012;2023-05-19T13:53:07;101737.06;;;27.93;100.00
19845;BME280;10083;51.038;7.012;2023-05-19T13:55:39;101851.47;;;26.52;100.00
19845;BME280;10083;51.038;7.012;2023-05-19T13:58:20;102026.78;;;25.67;100.00
19845;BME280;10083;51.038;7.012;2023-05-19T14:00:49;102089.75;;;24.54;100.00
19845;BME280;10083;51.038;7.012;2023-05-19T14:03:19;101943.28;;;25.30;100.00
19845;BME280;10083;51.038;7.012;2023-05-19T14:06:21;101833.59;;;26.96;100.00
19845;BME280;10083;51.038;7.012;2023-05-19T14:08:48;101806.06;;;29.77;100.00
19845;BME280;10083;51.038;7.012;2023-05-19T14:11:19;101872.00;;;29.50;100.00
19845;BME280;10083;51.038;7.012;2023-05-19T14:17:54;101590.09;;;32.03;100.00
19845;BME280;10083;51.038;7.012;2023-05-19T14:20:21;101591.53;;;29.15;100.00
19845;BME280;10083;51.038;7.012;2023-05-19T14:22:48;101770.78;;;26.90;100.00
19845;BME280;10083;51.038;7.012;2023-05-19T14:25:15;101939.66;;;26.49;100.00
19845;BME280;10083;51.038;7.012;2023-05-19T14:27:42;101781.19;;;27.69;100.00
19845;BME280;10083;51.038;7.012;2023-05-19T14:30:09;101796.34;;;28.20;100.00
19845;BME280;10083;51.038;7.012;2023-05-19T14:32:36;101786.22;;;30.04;100.00
19845;BME280;10083;51.038;7.012;2023-05-19T14:35:06;101541.47;;;30.40;100.00
19845;BME280;10083;51.038;7.012;2023-05-19T14:37:33;101711.13;;;27.84;100.00
19845;BME280;10083;51.038;7.012;2023-05-19T14:40:01;101848.72;;;26.65;100.00
19845;BME280;10083;51.038;7.012;2023-05-19T14:42:29;101872.34;;;28.91;100.00
19845;BME280;10083;51.038;7.012;2023-05-19T14:44:56;101717.19;;;28.22;100.00
19845;BME280;10083;51.038;7.012;2023-05-19T14:47:24;101751.00;;;28.24;100.00
19845;BME280;10083;51.038;7.012;2023-05-19T14:49:53;101798.59;;;27.69;100.00
19845;BME280;10083;51.038;7.012;2023-05-19T14:52:21;101875.78;;;29.27;100.00
19845;BME280;10083;51.038;7.012;2023-05-19T14:54:49;101591.41;;;29.38;100.00
19845;BME280;10083;51.038;7.012;2023-05-19T14:57:16;101780.56;;;28.67;100.00
19845;BME280;10083;51.038;7.012;2023-05-19T14:59:43;101722.69;;;28.99;100.00
19845;BME280;10083;51.038;7.012;2023-05-19T15:02:13;101626.81;;;30.73;100.00
19845;BME280;10083;51.038;7.012;2023-05-19T15:04:40;101511.34;;;30.27;100.00
19845;BME280;10083;51.038;7.012;2023-05-19T15:07:07;101524.84;;;30.01;100.00